createdAt,value
2023-04-12T00:01:12.676Z,73.30
2023-04-12T00:03:40.330Z,78.00
2023-04-12T00:06:09.940Z,80.50
2023-04-12T00:08:38.288Z,82.50
2023-04-12T00:11:06.362Z,77.80
2023-04-12T00:13:33.921Z,77.10
2023-04-12T00:16:01.544Z,85.50
2023-04-12T00:18:29.108Z,91.40
2023-04-12T00:20:56.608Z,91.70
2023-04-12T00:23:24.090Z,87.40
2023-04-12T00:25:51.769Z,90.20
2023-04-12T00:28:19.365Z,88.60
2023-04-12T00:30:47.122Z,88.70
2023-04-12T00:33:14.688Z,85.70
2023-04-12T00:35:42.461Z,82.90
2023-04-12T00:38:10.454Z,82.30
2023-04-12T00:40:42.697Z,85.90
2023-04-12T00:43:18.322Z,93.20
2023-04-12T00:45:47.044Z,89.70
2023-04-12T00:48:16.139Z,88.00
2023-04-12T00:50:47.041Z,93.70
2023-04-12T00:53:15.206Z,103.20
2023-04-12T00:55:46.464Z,105.00
2023-04-12T00:58:14.978Z,98.50
2023-04-12T01:00:49.755Z,103.30
2023-04-12T01:03:27.185Z,88.00
2023-04-12T01:06:15.830Z,87.40
2023-04-12T01:09:29.753Z,91.80
2023-04-12T01:12:05.113Z,93.50
2023-04-12T01:15:04.449Z,93.90
2023-04-12T01:17:38.825Z,94.70
2023-04-12T01:20:14.061Z,96.00
2023-04-12T01:23:11.543Z,94.30
2023-04-12T01:25:58.267Z,90.70
2023-04-12T01:28:34.527Z,98.30
2023-04-12T01:31:03.850Z,97.70
2023-04-12T01:33:33.931Z,98.80
2023-04-12T01:36:07.417Z,96.60
2023-04-12T01:38:35.583Z,108.50
2023-04-12T01:41:03.610Z,91.70
2023-04-12T01:43:31.147Z,107.70
2023-04-12T01:45:59.490Z,104.20
2023-04-12T01:48:27.152Z,98.20
2023-04-12T01:51:19.007Z,88.10
2023-04-12T01:54:00.601Z,93.60
2023-04-12T01:56:35.857Z,97.10
2023-04-12T01:59:07.095Z,94.40
2023-04-12T02:01:35.774Z,104.00
2023-04-12T02:04:06.060Z,95.00
2023-04-12T02:06:34.299Z,99.40
2023-04-12T02:09:03.609Z,99.00
2023-04-12T02:11:31.281Z,93.30
2023-04-12T02:13:59.136Z,104.00
2023-04-12T02:16:28.849Z,99.40
2023-04-12T02:18:56.897Z,90.00
2023-04-12T02:21:25.890Z,105.60
2023-04-12T02:23:53.339Z,95.10
2023-04-12T02:26:22.859Z,91.90
2023-04-12T02:28:52.089Z,101.50
2023-04-12T02:31:20.185Z,98.20
2023-04-12T02:33:48.610Z,87.50
2023-04-12T02:36:16.161Z,82.90
2023-04-12T02:38:43.797Z,87.40
2023-04-12T02:41:20.935Z,89.40
2023-04-12T02:43:49.041Z,84.20
2023-04-12T02:46:26.827Z,88.10
2023-04-12T02:48:57.641Z,81.70
2023-04-12T02:51:32.367Z,86.30
2023-04-12T02:54:00.929Z,90.90
2023-04-12T02:56:35.771Z,88.30
2023-04-12T02:59:08.453Z,91.20
2023-04-12T03:02:02.458Z,100.40
2023-04-12T03:04:32.814Z,90.60
2023-04-12T03:07:00.860Z,99.20
2023-04-12T03:09:49.288Z,90.70
2023-04-12T03:12:17.371Z,91.10
2023-04-12T03:14:53.172Z,89.20
2023-04-12T03:17:23.913Z,97.20
2023-04-12T03:19:52.063Z,95.50
2023-04-12T03:22:20.647Z,85.00
2023-04-12T03:24:51.252Z,94.30
2023-04-12T03:27:21.003Z,91.80
2023-04-12T03:29:48.802Z,100.00
2023-04-12T03:32:17.516Z,84.50
2023-04-12T03:34:45.948Z,84.10
2023-04-12T03:37:13.859Z,97.60
2023-04-12T03:39:47.232Z,107.60
2023-04-12T03:42:31.699Z,94.60
2023-04-12T03:45:02.252Z,103.70
2023-04-12T03:47:30.162Z,104.70
2023-04-12T03:50:11.510Z,100.50
2023-04-12T03:52:41.890Z,98.70
2023-04-12T03:55:11.356Z,92.00
2023-04-12T03:57:39.150Z,103.30
2023-04-12T04:00:08.102Z,113.30
2023-04-12T04:02:46.826Z,95.60
2023-04-12T04:05:14.985Z,104.60
2023-04-12T04:07:43.303Z,109.10
2023-04-12T04:10:11.549Z,104.10
2023-04-12T04:12:40.480Z,96.20
2023-04-12T04:15:11.202Z,104.80
2023-04-12T04:17:38.797Z,118.40
2023-04-12T04:20:08.572Z,85.30
2023-04-12T04:22:37.775Z,107.60
2023-04-12T04:25:06.032Z,99.10
2023-04-12T04:27:37.795Z,104.90
2023-04-12T04:30:06.900Z,101.20
2023-04-12T04:32:35.742Z,114.30
2023-04-12T04:35:03.981Z,98.10
2023-04-12T04:37:40.971Z,90.10
2023-04-12T04:40:11.076Z,100.00
2023-04-12T04:42:39.325Z,114.50
2023-04-12T04:45:13.617Z,109.00
2023-04-12T04:47:42.539Z,111.80
2023-04-12T04:50:10.642Z,119.80
2023-04-12T04:52:38.792Z,104.30
2023-04-12T04:55:11.397Z,97.50
2023-04-12T04:57:41.272Z,101.40
2023-04-12T05:00:13.500Z,92.70
2023-04-12T05:02:45.119Z,84.60
2023-04-12T05:05:15.578Z,99.60
2023-04-12T05:07:43.646Z,88.90
2023-04-12T05:10:11.367Z,105.80
2023-04-12T05:12:40.770Z,84.90
2023-04-12T05:15:12.112Z,95.30
2023-04-12T05:17:40.398Z,100.90
2023-04-12T05:20:10.230Z,97.90
2023-04-12T05:22:38.895Z,107.10
2023-04-12T05:25:06.846Z,102.70
2023-04-12T05:27:38.739Z,100.90
2023-04-12T05:30:08.458Z,100.60
2023-04-12T05:32:36.073Z,89.60
2023-04-12T05:35:04.583Z,102.80
2023-04-12T05:37:32.563Z,100.80
2023-04-12T05:40:00.179Z,99.90
2023-04-12T05:42:28.058Z,80.50
2023-04-12T05:44:55.955Z,84.40
2023-04-12T05:47:23.648Z,97.90
2023-04-12T05:49:51.479Z,94.30
2023-04-12T05:52:18.997Z,89.90
2023-04-12T05:54:46.650Z,100.10
2023-04-12T05:57:17.238Z,91.20
2023-04-12T05:59:44.935Z,95.70
2023-04-12T06:02:12.596Z,106.10
2023-04-12T06:04:49.998Z,94.20
2023-04-12T06:07:20.769Z,110.90
2023-04-12T06:09:49.239Z,101.60
2023-04-12T06:12:17.572Z,97.70
2023-04-12T06:14:45.439Z,105.60
2023-04-12T06:17:13.284Z,78.70
2023-04-12T06:19:41.018Z,99.30
2023-04-12T06:22:08.624Z,93.30
2023-04-12T06:24:36.652Z,86.50
2023-04-12T06:27:04.193Z,91.40
2023-04-12T06:29:32.561Z,88.20
2023-04-12T06:32:00.370Z,92.80
2023-04-12T06:34:27.929Z,86.30
2023-04-12T06:37:00.200Z,90.40
2023-04-12T06:39:27.674Z,90.00
2023-04-12T06:41:57.315Z,91.10
2023-04-12T06:44:26.727Z,101.50
2023-04-12T06:46:54.464Z,111.30
2023-04-12T06:49:22.154Z,109.40
2023-04-12T06:51:49.788Z,122.70
2023-04-12T06:54:17.469Z,107.60
2023-04-12T06:56:44.990Z,121.20
2023-04-12T06:59:12.404Z,138.90
2023-04-12T07:01:41.330Z,112.30
2023-04-12T07:04:14.427Z,114.40
2023-04-12T07:06:42.132Z,109.90
2023-04-12T07:09:09.842Z,101.70
2023-04-12T07:11:37.513Z,108.00
2023-04-12T07:14:05.124Z,96.10
2023-04-12T07:16:33.492Z,111.00
2023-04-12T07:19:01.170Z,101.80
2023-04-12T07:21:28.659Z,104.80
2023-04-12T07:23:56.260Z,96.70
2023-04-12T07:26:23.730Z,102.40
2023-04-12T07:28:51.430Z,110.50
2023-04-12T07:31:18.905Z,98.00
2023-04-12T07:33:46.546Z,103.90
2023-04-12T07:36:17.052Z,97.40
2023-04-12T07:38:44.525Z,108.80
2023-04-12T07:41:12.080Z,78.40
2023-04-12T07:43:39.773Z,115.90
2023-04-12T07:46:08.110Z,96.20
2023-04-12T07:48:35.845Z,102.20
2023-04-12T07:51:03.909Z,97.90
2023-04-12T07:53:31.787Z,96.90
2023-04-12T07:55:59.459Z,90.40
2023-04-12T07:58:27.187Z,95.90
2023-04-12T08:00:58.019Z,93.30
2023-04-12T08:03:26.964Z,84.10
2023-04-12T08:05:55.006Z,98.30
2023-04-12T08:08:23.059Z,87.10
2023-04-12T08:10:51.852Z,87.50
2023-04-12T08:13:19.736Z,92.10
2023-04-12T08:15:47.874Z,94.10
2023-04-12T08:18:15.537Z,96.40
2023-04-12T08:20:46.705Z,100.90
2023-04-12T08:23:14.179Z,101.20
2023-04-12T08:25:41.912Z,90.70
2023-04-12T08:28:09.682Z,91.00
2023-04-12T08:30:37.208Z,78.80
2023-04-12T08:33:05.050Z,85.30
2023-04-12T08:35:32.602Z,95.20
2023-04-12T08:38:06.248Z,75.90
2023-04-12T08:40:33.970Z,96.50
2023-04-12T08:43:05.068Z,71.20
2023-04-12T08:45:35.818Z,71.20
2023-04-12T08:48:05.449Z,75.10
2023-04-12T08:50:33.405Z,74.50
2023-04-12T08:53:00.985Z,67.60
2023-04-12T08:55:28.569Z,83.30
2023-04-12T08:57:56.458Z,81.80
2023-04-12T09:00:24.578Z,84.40
2023-04-12T09:02:52.314Z,70.00
2023-04-12T09:05:22.645Z,71.70
2023-04-12T09:07:50.469Z,69.00
2023-04-12T09:10:37.252Z,73.40
2023-04-12T09:13:06.211Z,77.00
2023-04-12T09:15:34.410Z,76.60
2023-04-12T09:18:10.784Z,82.50
2023-04-12T09:20:39.305Z,72.90
2023-04-12T09:23:21.586Z,71.20
2023-04-12T09:25:52.370Z,75.40
2023-04-12T09:28:29.332Z,72.40
2023-04-12T09:30:59.494Z,61.10
2023-04-12T09:33:36.498Z,73.20
2023-04-12T09:36:06.473Z,77.20
2023-04-12T09:38:36.371Z,77.00
2023-04-12T09:41:22.247Z,72.80
2023-04-12T09:43:51.233Z,74.20
2023-04-12T09:46:18.996Z,72.10
2023-04-12T09:48:52.143Z,76.90
2023-04-12T09:51:33.433Z,72.30
2023-04-12T09:54:03.792Z,77.80
2023-04-12T09:56:35.226Z,73.10
2023-04-12T09:59:06.626Z,78.40
2023-04-12T10:01:39.965Z,71.30
2023-04-12T10:04:09.683Z,79.10
2023-04-12T10:06:38.552Z,65.10
2023-04-12T10:09:08.392Z,72.00
2023-04-12T10:11:37.042Z,64.30
2023-04-12T10:14:06.465Z,66.80
2023-04-12T10:16:34.636Z,67.80
2023-04-12T10:19:03.641Z,72.20
2023-04-12T10:21:31.346Z,66.60
2023-04-12T10:23:59.263Z,66.40
2023-04-12T10:26:27.411Z,65.80
2023-04-12T10:29:24.413Z,70.10
2023-04-12T10:31:56.346Z,78.40
2023-04-12T10:34:30.789Z,73.60
2023-04-12T10:37:00.779Z,81.00
2023-04-12T10:39:51.705Z,75.70
2023-04-12T10:42:30.325Z,74.00
2023-04-12T10:45:31.575Z,78.30
2023-04-12T10:48:01.126Z,86.00
2023-04-12T10:50:34.812Z,83.00
2023-04-12T10:53:21.401Z,80.60
2023-04-12T10:55:49.265Z,81.10
2023-04-12T10:58:48.903Z,79.60
2023-04-12T11:01:17.997Z,80.00
2023-04-12T11:04:09.318Z,74.20
2023-04-12T11:06:59.714Z,78.40
2023-04-12T11:09:48.198Z,79.60
2023-04-12T11:12:26.921Z,77.30
2023-04-12T11:15:00.477Z,72.00
2023-04-12T11:17:31.790Z,76.60
2023-04-12T11:20:01.122Z,76.60
2023-04-12T11:22:31.846Z,81.30
2023-04-12T11:25:01.890Z,83.00
2023-04-12T11:27:31.445Z,68.80
2023-04-12T11:30:00.765Z,94.00
2023-04-12T11:32:30.786Z,91.40
2023-04-12T11:34:58.954Z,79.50
2023-04-12T11:37:31.060Z,88.40
2023-04-12T11:39:59.463Z,82.20
2023-04-12T11:42:28.736Z,71.80
2023-04-12T11:44:59.827Z,74.30
2023-04-12T11:49:59.028Z,76.10
2023-04-12T11:52:32.151Z,78.30
2023-04-12T11:55:07.067Z,75.70
2023-04-12T11:57:35.573Z,81.20
2023-04-12T12:00:06.100Z,76.80
2023-04-12T12:02:49.044Z,85.40
2023-04-12T12:05:24.199Z,82.90
2023-04-12T12:07:53.593Z,83.20
2023-04-12T12:10:36.628Z,68.60
2023-04-12T12:13:13.793Z,77.30
2023-04-12T12:15:45.432Z,81.60
2023-04-12T12:18:13.539Z,71.70
2023-04-12T12:20:51.093Z,82.70
2023-04-12T12:23:30.479Z,78.60
2023-04-12T12:26:14.368Z,77.60
2023-04-12T12:28:53.445Z,70.10
2023-04-12T12:31:27.516Z,79.00
2023-04-12T12:33:58.732Z,76.70
2023-04-12T12:36:35.753Z,74.00
2023-04-12T12:39:12.932Z,75.40
2023-04-12T12:41:41.138Z,76.60
2023-04-12T12:44:11.798Z,73.80
2023-04-12T12:49:10.242Z,82.80
2023-04-12T12:51:37.993Z,71.10
2023-04-12T12:54:07.184Z,72.20
2023-04-12T12:56:38.084Z,84.60
2023-04-12T12:59:06.161Z,76.30
2023-04-12T13:01:33.864Z,85.30
2023-04-12T13:04:01.857Z,86.80
2023-04-12T13:06:31.593Z,80.70
2023-04-12T13:08:59.814Z,81.00
2023-04-12T13:11:27.532Z,78.70
2023-04-12T13:13:55.541Z,70.30
2023-04-12T13:16:25.436Z,72.80
2023-04-12T13:18:54.957Z,76.70
2023-04-12T13:21:22.524Z,74.20
2023-04-12T13:23:51.679Z,80.50
2023-04-12T13:26:19.648Z,69.50
2023-04-12T13:28:47.286Z,85.30
2023-04-12T13:31:15.156Z,75.40
2023-04-12T13:33:42.830Z,76.20
2023-04-12T13:36:10.566Z,80.30
2023-04-12T13:38:38.056Z,76.40
2023-04-12T13:41:05.756Z,76.20
2023-04-12T13:43:33.367Z,71.90
2023-04-12T13:46:01.157Z,82.10
2023-04-12T13:48:28.726Z,68.40
2023-04-12T13:50:56.500Z,74.00
2023-04-12T13:53:24.338Z,76.90
2023-04-12T13:55:51.900Z,76.60
2023-04-12T13:58:19.581Z,66.50
2023-04-12T14:00:47.040Z,71.20
2023-04-12T14:03:14.681Z,73.20
2023-04-12T14:05:42.145Z,73.10
2023-04-12T14:08:09.537Z,84.00
2023-04-12T14:10:37.084Z,67.00
2023-04-12T14:13:04.682Z,76.30
2023-04-12T14:15:32.175Z,71.60
2023-04-12T14:18:00.064Z,79.80
2023-04-12T14:20:27.930Z,75.90
2023-04-12T14:22:56.449Z,84.80
2023-04-12T14:25:23.783Z,85.00
2023-04-12T14:27:52.203Z,77.50
2023-04-12T14:30:19.790Z,80.20
2023-04-12T14:32:48.888Z,71.80
2023-04-12T14:35:17.460Z,82.90
2023-04-12T14:37:45.708Z,70.40
2023-04-12T14:40:14.547Z,78.40
2023-04-12T14:42:42.121Z,76.00
2023-04-12T14:45:10.735Z,88.70
2023-04-12T14:47:38.740Z,74.80
2023-04-12T14:50:07.012Z,85.10
2023-04-12T14:52:34.762Z,61.60
2023-04-12T14:55:02.040Z,89.60
2023-04-12T14:57:29.826Z,87.40
2023-04-12T14:59:57.365Z,89.30
2023-04-12T15:02:25.585Z,70.00
2023-04-12T15:04:53.570Z,83.20
2023-04-12T15:07:21.137Z,95.40
2023-04-12T15:09:48.657Z,97.40
2023-04-12T15:12:16.634Z,108.30
2023-04-12T15:14:44.168Z,108.50
2023-04-12T15:17:11.874Z,100.40
2023-04-12T15:19:39.584Z,97.60
2023-04-12T15:22:07.038Z,112.00
2023-04-12T15:24:34.839Z,106.60
2023-04-12T15:27:04.995Z,92.40
2023-04-12T15:29:35.222Z,113.30
2023-04-12T15:32:02.904Z,110.50
2023-04-12T15:34:33.306Z,117.90
2023-04-12T15:37:01.023Z,113.60
2023-04-12T15:39:28.739Z,122.70
2023-04-12T15:41:56.267Z,114.30
2023-04-12T15:44:26.668Z,102.50
2023-04-12T15:47:07.861Z,95.80
2023-04-12T15:49:39.470Z,98.10
2023-04-12T15:52:07.450Z,109.40
2023-04-12T15:54:43.076Z,102.70
2023-04-12T15:57:11.390Z,104.30
2023-04-12T15:59:40.401Z,108.80
2023-04-12T16:02:09.305Z,108.10
2023-04-12T16:04:37.363Z,98.90
2023-04-12T16:07:05.121Z,100.20
2023-04-12T16:09:32.679Z,100.70
2023-04-12T16:12:04.107Z,103.10
2023-04-12T16:14:32.896Z,106.00
2023-04-12T16:17:01.200Z,98.50
2023-04-12T16:19:28.661Z,102.20
2023-04-12T16:21:58.273Z,99.70
2023-04-12T16:24:25.761Z,110.80
2023-04-12T16:26:53.291Z,103.70
2023-04-12T16:29:20.812Z,89.80
2023-04-12T16:31:48.301Z,87.60
2023-04-12T16:34:15.945Z,96.50
2023-04-12T16:36:44.170Z,98.60
2023-04-12T16:39:12.840Z,89.50
2023-04-12T16:41:40.520Z,85.80
2023-04-12T16:44:08.247Z,86.20
2023-04-12T16:46:36.154Z,88.70
2023-04-12T16:49:04.385Z,80.80
2023-04-12T16:51:37.273Z,92.50
2023-04-12T16:54:05.439Z,92.00
2023-04-12T16:56:33.111Z,85.10
2023-04-12T16:59:00.971Z,70.50
2023-04-12T17:01:28.573Z,107.50
2023-04-12T17:03:56.046Z,90.80
2023-04-12T17:06:24.264Z,82.00
2023-04-12T17:08:51.825Z,82.50
2023-04-12T17:11:19.504Z,79.40
2023-04-12T17:13:49.542Z,77.30
2023-04-12T17:16:17.293Z,70.10
2023-04-12T17:18:45.036Z,78.40
2023-04-12T17:21:16.567Z,77.70
2023-04-12T17:23:44.343Z,75.60
2023-04-12T17:26:11.914Z,80.30
2023-04-12T17:28:41.044Z,77.90
2023-04-12T17:31:08.879Z,70.20
2023-04-12T17:33:37.143Z,75.30
2023-04-12T17:36:11.242Z,76.40
2023-04-12T17:38:39.037Z,74.90
2023-04-12T17:41:08.710Z,73.00
2023-04-12T17:43:36.486Z,69.00
2023-04-12T17:46:06.623Z,66.20
2023-04-12T17:48:34.616Z,62.80
2023-04-12T17:51:02.759Z,67.30
2023-04-12T17:53:30.830Z,77.20
2023-04-12T17:55:58.509Z,66.60
2023-04-12T17:58:27.250Z,64.90
2023-04-12T18:00:54.924Z,67.70
2023-04-12T18:03:22.905Z,58.60
2023-04-12T18:05:51.029Z,61.30
2023-04-12T18:08:18.866Z,55.80
2023-04-12T18:10:46.792Z,53.50
2023-04-12T18:13:14.276Z,54.30
2023-04-12T18:15:42.055Z,53.50
2023-04-12T18:18:09.802Z,48.60
2023-04-12T18:20:37.425Z,50.40
2023-04-12T18:23:05.019Z,48.90
2023-04-12T18:25:32.975Z,53.40
2023-04-12T18:28:00.456Z,44.00
2023-04-12T18:30:28.240Z,47.00
2023-04-12T18:32:57.302Z,50.90
2023-04-12T18:35:25.315Z,54.40
2023-04-12T18:37:53.157Z,47.70
2023-04-12T18:40:22.783Z,40.90
2023-04-12T18:42:50.258Z,43.10
2023-04-12T18:45:19.370Z,46.80
2023-04-12T18:47:46.903Z,37.20
2023-04-12T18:50:14.512Z,43.70
2023-04-12T18:52:42.080Z,38.60
2023-04-12T18:55:09.819Z,42.30
2023-04-12T18:57:37.224Z,40.90
2023-04-12T19:00:10.564Z,46.90
2023-04-12T19:02:38.145Z,45.90
2023-04-12T19:05:05.828Z,55.40
2023-04-12T19:07:33.524Z,54.80
2023-04-12T19:10:01.267Z,54.50
2023-04-12T19:12:29.153Z,47.30
2023-04-12T19:14:56.672Z,55.30
2023-04-12T19:17:27.083Z,56.10
2023-04-12T19:19:55.207Z,61.50
2023-04-12T19:22:25.847Z,59.70
2023-04-12T19:24:54.242Z,59.20
2023-04-12T19:27:22.393Z,53.20
2023-04-12T19:29:51.299Z,52.80
2023-04-12T19:32:19.026Z,50.20
2023-04-12T19:34:47.159Z,59.40
2023-04-12T19:37:14.694Z,53.60
2023-04-12T19:39:42.131Z,60.90
2023-04-12T19:42:10.407Z,67.30
2023-04-12T19:44:40.218Z,58.40
2023-04-12T19:47:08.137Z,62.90
2023-04-12T19:49:36.487Z,85.30
2023-04-12T19:52:04.994Z,66.50
2023-04-12T19:54:33.220Z,60.50
2023-04-12T19:57:02.804Z,71.20
2023-04-12T19:59:33.499Z,80.40
2023-04-12T20:02:01.051Z,104.30
2023-04-12T20:04:28.712Z,72.00
2023-04-12T20:06:56.357Z,81.20
2023-04-12T20:09:24.859Z,82.50
2023-04-12T20:11:52.554Z,86.00
2023-04-12T20:14:20.252Z,87.00
2023-04-12T20:16:47.949Z,83.30
2023-04-12T20:19:15.936Z,103.20
2023-04-12T20:21:43.632Z,93.80
2023-04-12T20:24:12.101Z,103.50
2023-04-12T20:26:39.577Z,99.20
2023-04-12T20:29:07.501Z,106.30
2023-04-12T20:31:35.078Z,134.00
2023-04-12T20:34:03.572Z,106.90
2023-04-12T20:36:30.882Z,91.90
2023-04-12T20:39:00.978Z,123.80
2023-04-12T20:41:28.851Z,101.50
2023-04-12T20:43:57.161Z,96.50
2023-04-12T20:46:26.230Z,101.70
2023-04-12T20:48:55.745Z,107.30
2023-04-12T20:51:23.767Z,100.40
2023-04-12T20:53:51.244Z,106.00
2023-04-12T20:56:18.988Z,105.60
2023-04-12T20:58:47.997Z,90.60
2023-04-12T21:01:15.600Z,101.80
2023-04-12T21:03:43.395Z,101.30
2023-04-12T21:06:11.118Z,103.30
2023-04-12T21:08:39.154Z,89.50
2023-04-12T21:11:06.973Z,114.30
2023-04-12T21:13:35.180Z,101.30
2023-04-12T21:16:02.872Z,100.10
2023-04-12T21:18:33.723Z,104.60
2023-04-12T21:21:01.640Z,94.30
2023-04-12T21:23:29.677Z,96.50
2023-04-12T21:25:57.232Z,91.40
2023-04-12T21:28:24.694Z,97.60
2023-04-12T21:30:54.780Z,102.90
2023-04-12T21:33:25.627Z,103.10
2023-04-12T21:35:55.943Z,88.60
2023-04-12T21:38:23.800Z,107.60
2023-04-12T21:40:51.805Z,79.30
2023-04-12T21:43:19.189Z,88.60
2023-04-12T21:45:46.837Z,97.70
2023-04-12T21:48:14.672Z,99.50
2023-04-12T21:50:42.275Z,94.00
2023-04-12T21:53:09.832Z,93.60
2023-04-12T21:55:37.596Z,94.60
2023-04-12T21:58:06.340Z,92.70
2023-04-12T22:00:34.428Z,93.90
2023-04-12T22:03:02.367Z,92.60
2023-04-12T22:05:30.251Z,96.60
2023-04-12T22:07:57.625Z,99.00
2023-04-12T22:10:25.288Z,106.20
2023-04-12T22:12:53.433Z,106.90
2023-04-12T22:15:21.250Z,103.40
2023-04-12T22:17:48.784Z,100.70
2023-04-12T22:20:16.808Z,91.10
2023-04-12T22:22:44.299Z,112.00
2023-04-12T22:25:14.369Z,103.00
2023-04-12T22:27:45.775Z,97.60
2023-04-12T22:30:14.451Z,112.50
2023-04-12T22:32:42.064Z,111.70
2023-04-12T22:35:09.934Z,113.00
2023-04-12T22:37:43.560Z,101.40
2023-04-12T22:40:12.917Z,109.40
2023-04-12T22:42:47.098Z,113.00
2023-04-12T22:45:17.169Z,112.10
2023-04-12T22:47:45.309Z,107.50
2023-04-12T22:50:13.305Z,107.20
2023-04-12T22:52:41.229Z,110.70
2023-04-12T22:55:13.905Z,115.50
2023-04-12T22:57:41.461Z,107.80
2023-04-12T23:02:40.192Z,108.30
2023-04-12T23:05:09.247Z,109.60
2023-04-12T23:07:37.886Z,102.50
2023-04-12T23:10:07.459Z,111.30
2023-04-12T23:12:36.722Z,111.50
2023-04-12T23:15:05.290Z,110.50
2023-04-12T23:17:33.286Z,112.60
2023-04-12T23:20:05.218Z,140.10
2023-04-12T23:22:48.640Z,150.00
2023-04-12T23:25:22.065Z,153.30
2023-04-12T23:27:50.639Z,154.20
2023-04-12T23:30:18.415Z,151.60
2023-04-12T23:32:46.164Z,164.80
2023-04-12T23:35:14.044Z,163.30
2023-04-12T23:37:42.536Z,153.40
2023-04-12T23:40:14.243Z,159.20
2023-04-12T23:42:43.224Z,134.90
2023-04-12T23:45:11.574Z,158.50
2023-04-12T23:47:38.977Z,129.70
2023-04-12T23:50:07.102Z,144.70
2023-04-12T23:52:35.404Z,140.30
2023-04-12T23:55:03.261Z,142.10
2023-04-12T23:57:31.130Z,148.60
2023-04-12T23:59:58.768Z,144.90
